Track Боревич Александр

Time Latitude Longitude Accuracy (66% radius in meters) Altitude (meters) Speed (km/hour) Bearing (degrees) Battery (%) GPS flag
09:54:59 60.253327 29.795988 0 75.6 0.35670250654221 13.789999961853 1 delete
09:54:33 60.253255 29.795863 0 74.1 0.57751834392548 161.36999511719 1 delete
09:53:41 60.253345 29.795895 0 73.9 0.34692278504372 27.729999542236 1 delete
09:53:07 60.253252 29.795830 0 73.7 0.7751716375351 13.739999771118 1 delete
09:50:17 60.253185 29.795962 0 87.3 1.2121708393097 233.17999267578 1 delete
09:49:40 60.253230 29.796143 0 94.2 0.95223611593246 213.83999633789 1 delete
09:49:24 60.253267 29.796308 0 95.9 1.8684417009354 267.66000366211 1 delete
09:49:21 60.253257 29.796540 0 96.3 5.4370107650757 267.9700012207 1 delete
09:49:19 60.253253 29.796765 0 97 5.8559947013855 263.42999267578 1 delete
09:49:17 60.253240 29.796980 0 97.2 5.0401601791382 261.54998779297 1 delete
09:49:13 60.253232 29.797235 0 101.2 3.7857818603516 291.41000366211 1 delete
09:49:11 60.253195 29.797447 0 101.3 5.8559947013855 274.29000854492 1 delete
09:49:09 60.253195 29.797655 0 100.8 5.3737001419067 231.75 1 delete
09:49:07 60.253273 29.797835 0 99.4 6.042839050293 232.71000671387 1 delete
09:49:05 60.253323 29.798027 0 98.7 5.8410677909851 265.23001098633 1 delete
09:49:03 60.253348 29.798228 0 99.5 5.7010631561279 261.33999633789 1 delete
09:49:01 60.253370 29.798445 0 100.5 7.047061920166 253.88999938965 1 delete
09:48:59 60.253420 29.798665 0 100.3 5.5780448913574 255.17999267578 1 delete
09:48:57 60.253450 29.798873 0 98.7 6.0438685417175 252.2799987793 1 delete
09:48:55 60.253477 29.799073 0 97.9 4.8898611068726 281.35998535156 1 delete
09:48:52 60.253423 29.799315 0 98.4 4.8697867393494 286.95001220703 1 delete
09:48:49 60.253452 29.799555 0 97.8 4.1239542961121 252.80999755859 1 delete
09:48:46 60.253512 29.799737 0 95.1 3.6715135574341 219.30000305176 1 delete
09:48:42 60.253628 29.799778 0 93.3 2.9380345344543 160.86000061035 1 delete
09:48:38 60.253737 29.799750 0 92 2.7408957481384 186.07000732422 1 delete
09:48:35 60.253787 29.799903 0 91.2 3.0384051799774 269.55999755859 1 delete
09:48:32 60.253810 29.800093 0 91 3.5124645233154 270.17001342773 1 delete
09:48:29 60.253840 29.800277 0 90.1 4.3756537437439 226.17999267578 1 delete
09:48:26 60.253922 29.800433 0 87.3 4.2546939849854 213.67999267578 1 delete
09:48:23 60.254030 29.800510 0 86.2 4.0071125030518 156.24000549316 1 delete
09:48:20 60.254130 29.800442 0 85.7 3.9638757705688 166.99000549316 1 delete
09:48:17 60.254252 29.800417 0 81.9 3.567539691925 173.0299987793 1 delete
09:48:13 60.254338 29.800582 0 83.4 2.8031771183014 237.24000549316 1 delete
09:48:10 60.254402 29.800725 0 83 3.1619386672974 229.50999450684 1 delete
09:48:07 60.254460 29.800925 0 84.6 2.7522196769714 256.32000732422 1 delete
09:48:04 60.254428 29.801098 0 84 3.4738602638245 313.73999023438 1 delete
09:48:01 60.254365 29.801277 0 83.1 3.2931928634644 302.69000244141 1 delete
09:47:58 60.254327 29.801450 0 83.4 2.7383222579956 270.73999023438 1 delete
09:47:51 60.254295 29.801663 0 83.7 2.8350899219513 307.80999755859 1 delete
09:47:48 60.254205 29.801775 0 83.9 3.7904143333435 307.76000976562 1 delete
09:47:45 60.254117 29.801982 0 86.1 5.3448753356934 307.36999511719 1 delete
09:47:43 60.254052 29.802185 0 87.8 5.103985786438 306.67001342773 1 delete
09:47:41 60.254010 29.802448 0 88.6 5.7273139953613 280.20001220703 1 delete
09:47:39 60.254028 29.802672 0 87.4 5.6351790428162 244.30000305176 1 delete
09:47:36 60.254088 29.802858 0 87.6 4.3391084671021 221.38000488281 1 delete
09:47:33 60.254157 29.803040 0 87.3 4.3566088676453 255.36000061035 1 delete
09:47:30 60.254180 29.803223 0 88 3.1866452693939 287.94000244141 1 delete
09:47:27 60.254125 29.803380 0 89.9 3.5917315483093 309.98999023438 1 delete
09:47:24 60.254075 29.803602 0 91.5 3.9721114635468 293.64001464844 1 delete
09:47:21 60.254052 29.803793 0 91.7 3.2540738582611 288.69000244141 1 delete